Time;durP1;ratioP1;P1;durP2;ratioP2;P2;SDS_P1;SDS_P2;PMS_P1;PMS_P2;Temp;Humidity;BMP_temperature;BMP_pressure;BME280_temperature;BME280_humidity;BME280_pressure;Samples;Min_cycle;Max_cycle;Signal;HPM_P1;HPM_P2
2024/01/14 00:02:13;;;;;;;11.35;10.75;;;;;;;;;;5034781;28;20095;-53
2024/01/14 00:04:39;;;;;;;10.02;9.52;;;;;;;;;;5034198;28;20095;-55
2024/01/14 00:07:04;;;;;;;10.13;9.63;;;;;;;;;;5033799;28;20474;-55
2024/01/14 00:09:29;;;;;;;9.52;9.13;;;;;;;;;;5035670;28;20041;-56
2024/01/14 00:11:54;;;;;;;10.40;9.88;;;;;;;;;;5042835;28;20018;-57
2024/01/14 00:14:20;;;;;;;10.48;9.98;;;;;;;;;;5036469;28;20028;-56
2024/01/14 00:16:45;;;;;;;9.80;9.30;;;;;;;;;;5041523;28;20049;-57
2024/01/14 00:19:11;;;;;;;9.52;9.13;;;;;;;;;;5034671;28;20078;-53
2024/01/14 00:21:36;;;;;;;10.10;9.60;;;;;;;;;;5040398;28;20018;-56
2024/01/14 00:24:03;;;;;;;10.20;9.70;;;;;;;;;;5029619;28;20044;-56
2024/01/14 00:26:29;;;;;;;10.10;9.60;;;;;;;;;;5032682;28;20033;-56
2024/01/14 00:28:55;;;;;;;10.32;9.82;;;;;;;;;;5031018;28;20032;-56
2024/01/14 00:31:21;;;;;;;10.73;10.18;;;;;;;;;;5038482;28;20018;-54
2024/01/14 00:33:46;;;;;;;10.27;9.77;;;;;;;;;;5030435;28;20020;-56
2024/01/14 00:36:12;;;;;;;10.50;10.00;;;;;;;;;;5035174;28;20021;-53
2024/01/14 00:38:37;;;;;;;10.40;9.90;;;;;;;;;;5031181;28;20431;-55
2024/01/14 00:41:03;;;;;;;10.50;10.00;;;;;;;;;;5034112;28;20370;-57
2024/01/14 00:43:29;;;;;;;10.23;9.73;;;;;;;;;;5032450;28;20025;-56
2024/01/14 00:45:54;;;;;;;10.65;10.15;;;;;;;;;;5033282;28;20061;-56
2024/01/14 00:48:19;;;;;;;10.32;9.82;;;;;;;;;;5031765;28;20073;-57
2024/01/14 00:50:45;;;;;;;10.10;9.60;;;;;;;;;;5032676;28;20545;-56
2024/01/14 00:53:10;;;;;;;10.20;9.70;;;;;;;;;;5030822;28;20381;-56
2024/01/14 00:55:37;;;;;;;10.10;9.60;;;;;;;;;;5033261;28;20159;-57
2024/01/14 00:58:02;;;;;;;10.23;9.73;;;;;;;;;;5041909;28;20052;-57
2024/01/14 01:00:28;;;;;;;10.25;9.75;;;;;;;;;;5033543;28;20048;-56
2024/01/14 01:02:53;;;;;;;9.63;9.23;;;;;;;;;;5033224;28;20449;-57
2024/01/14 01:05:19;;;;;;;10.35;9.85;;;;;;;;;;5032355;28;20017;-56
2024/01/14 01:07:45;;;;;;;10.27;9.77;;;;;;;;;;5038675;28;20024;-55
2024/01/14 01:10:10;;;;;;;10.68;10.15;;;;;;;;;;5046502;28;20025;-55
2024/01/14 01:12:36;;;;;;;9.60;9.20;;;;;;;;;;5042955;28;20018;-52
2024/01/14 01:15:01;;;;;;;9.82;9.43;;;;;;;;;;5033929;28;20047;-54
2024/01/14 01:17:27;;;;;;;10.20;9.70;;;;;;;;;;5036602;28;20049;-54
2024/01/14 01:19:52;;;;;;;9.68;9.23;;;;;;;;;;5033787;28;20948;-54
2024/01/14 01:22:18;;;;;;;9.95;9.45;;;;;;;;;;5032526;28;20121;-56
2024/01/14 01:24:44;;;;;;;9.80;9.35;;;;;;;;;;5035411;28;20029;-55
2024/01/14 01:27:09;;;;;;;10.18;9.68;;;;;;;;;;5047527;28;20551;-56
2024/01/14 01:29:35;;;;;;;10.05;9.55;;;;;;;;;;5040463;28;20033;-56
2024/01/14 01:32:00;;;;;;;10.25;9.75;;;;;;;;;;5034191;28;20036;-56
2024/01/14 01:34:25;;;;;;;10.32;9.82;;;;;;;;;;5029813;28;20022;-57
2024/01/14 01:36:51;;;;;;;10.40;9.90;;;;;;;;;;5035493;28;20044;-56
2024/01/14 01:39:16;;;;;;;10.80;10.20;;;;;;;;;;5039289;28;20100;-53
2024/01/14 01:41:41;;;;;;;10.15;9.65;;;;;;;;;;5034057;28;20144;-55
2024/01/14 01:44:07;;;;;;;10.90;10.30;;;;;;;;;;5034485;28;20061;-56
2024/01/14 01:46:34;;;;;;;10.52;10.02;;;;;;;;;;5020210;28;20028;-54
2024/01/14 01:48:59;;;;;;;10.38;9.88;;;;;;;;;;5019591;28;20477;-55
2024/01/14 01:51:25;;;;;;;10.07;9.60;;;;;;;;;;5035915;28;20034;-55
2024/01/14 01:53:50;;;;;;;10.00;9.50;;;;;;;;;;5034177;28;20025;-54
2024/01/14 01:56:16;;;;;;;10.23;9.73;;;;;;;;;;5050093;28;20021;-56
2024/01/14 01:58:42;;;;;;;10.48;9.98;;;;;;;;;;5034687;28;20029;-56
2024/01/14 02:01:07;;;;;;;10.82;10.25;;;;;;;;;;5039233;28;20055;-56
2024/01/14 02:03:33;;;;;;;10.10;9.60;;;;;;;;;;5031233;28;20428;-52
2024/01/14 02:05:59;;;;;;;10.32;9.82;;;;;;;;;;5040405;28;20025;-52
2024/01/14 02:08:25;;;;;;;10.25;9.75;;;;;;;;;;5029242;28;20112;-57
2024/01/14 02:10:50;;;;;;;10.75;10.23;;;;;;;;;;5027532;28;20552;-56
2024/01/14 02:13:16;;;;;;;10.35;9.85;;;;;;;;;;5035725;28;20013;-56
2024/01/14 02:15:41;;;;;;;10.10;9.60;;;;;;;;;;5034672;28;20381;-55
2024/01/14 02:18:06;;;;;;;9.90;9.40;;;;;;;;;;5029495;28;20295;-52
2024/01/14 02:20:32;;;;;;;10.30;9.80;;;;;;;;;;5033072;28;20431;-56
2024/01/14 02:22:58;;;;;;;9.82;9.32;;;;;;;;;;5031498;28;20025;-54
2024/01/14 02:25:23;;;;;;;10.15;9.65;;;;;;;;;;5031202;28;20025;-57
2024/01/14 02:27:49;;;;;;;10.80;10.20;;;;;;;;;;5035579;28;20017;-56
2024/01/14 02:30:15;;;;;;;10.77;10.18;;;;;;;;;;5031028;28;20057;-57
2024/01/14 02:32:40;;;;;;;10.23;9.73;;;;;;;;;;5025953;28;20060;-56
2024/01/14 02:35:06;;;;;;;10.30;9.80;;;;;;;;;;5040477;28;20021;-55
2024/01/14 02:37:35;;;;;;;10.70;10.20;;;;;;;;;;5044104;28;20021;-56
2024/01/14 02:40:01;;;;;;;10.02;9.52;;;;;;;;;;5027855;28;20018;-56
2024/01/14 02:42:26;;;;;;;10.43;9.88;;;;;;;;;;5030400;28;20032;-55
2024/01/14 02:44:51;;;;;;;11.02;10.43;;;;;;;;;;5031062;28;20044;-56
2024/01/14 02:47:17;;;;;;;10.98;10.38;;;;;;;;;;5032328;28;20022;-56
2024/01/14 02:49:42;;;;;;;10.30;9.80;;;;;;;;;;5030241;28;20018;-57
2024/01/14 02:52:07;;;;;;;10.15;9.65;;;;;;;;;;5045176;28;20143;-55
2024/01/14 02:54:33;;;;;;;10.50;10.00;;;;;;;;;;5049883;28;20385;-56
2024/01/14 02:56:58;;;;;;;10.60;10.10;;;;;;;;;;5043040;28;20021;-57
2024/01/14 02:59:23;;;;;;;12.07;11.38;;;;;;;;;;5034574;28;20084;-55
2024/01/14 03:01:49;;;;;;;10.52;10.02;;;;;;;;;;5030844;28;20014;-55
2024/01/14 03:04:14;;;;;;;10.48;9.98;;;;;;;;;;5039637;28;20119;-55
2024/01/14 03:06:39;;;;;;;10.80;10.30;;;;;;;;;;5033404;28;20049;-57
2024/01/14 03:09:06;;;;;;;11.10;10.60;;;;;;;;;;5036773;28;20018;-56
2024/01/14 03:11:34;;;;;;;10.80;10.30;;;;;;;;;;5035230;28;20017;-57
2024/01/14 03:13:59;;;;;;;10.82;10.32;;;;;;;;;;5032416;28;20099;-54
2024/01/14 03:16:25;;;;;;;11.30;10.70;;;;;;;;;;5041351;28;20053;-53
2024/01/14 03:18:50;;;;;;;10.77;10.27;;;;;;;;;;5049354;28;20033;-56
2024/01/14 03:21:17;;;;;;;10.63;10.13;;;;;;;;;;5042390;28;20025;-56
2024/01/14 03:23:43;;;;;;;11.50;10.90;;;;;;;;;;5043584;28;20427;-57
2024/01/14 03:26:08;;;;;;;11.75;11.15;;;;;;;;;;5043814;28;20112;-53
2024/01/14 03:28:33;;;;;;;11.95;11.35;;;;;;;;;;5038930;28;20028;-56
2024/01/14 03:30:59;;;;;;;11.60;11.00;;;;;;;;;;5037832;28;20025;-56
2024/01/14 03:33:24;;;;;;;11.43;10.82;;;;;;;;;;5027542;28;20112;-56
2024/01/14 03:35:49;;;;;;;11.80;11.20;;;;;;;;;;5041547;28;20028;-56
2024/01/14 03:38:15;;;;;;;11.80;11.20;;;;;;;;;;5039568;28;20054;-54
2024/01/14 03:40:40;;;;;;;11.18;10.63;;;;;;;;;;5035069;28;20036;-54
2024/01/14 03:43:06;;;;;;;10.70;10.20;;;;;;;;;;5045525;28;20443;-53
2024/01/14 03:45:31;;;;;;;10.80;10.30;;;;;;;;;;5034547;28;20373;-57
2024/01/14 03:47:56;;;;;;;11.68;11.07;;;;;;;;;;5037602;28;20074;-55
2024/01/14 03:50:22;;;;;;;11.38;10.77;;;;;;;;;;5036788;28;20105;-54
2024/01/14 03:52:47;;;;;;;11.60;11.05;;;;;;;;;;5037124;28;20025;-55
2024/01/14 03:55:13;;;;;;;11.27;10.77;;;;;;;;;;5033873;28;20067;-53
2024/01/14 03:57:38;;;;;;;10.90;10.40;;;;;;;;;;5034884;28;20013;-56
2024/01/14 04:00:03;;;;;;;10.88;10.38;;;;;;;;;;5034539;28;20180;-54
2024/01/14 04:02:29;;;;;;;10.98;10.45;;;;;;;;;;5032423;28;20091;-55
2024/01/14 04:04:54;;;;;;;11.30;10.70;;;;;;;;;;5033974;28;20078;-56
2024/01/14 04:07:19;;;;;;;11.55;10.95;;;;;;;;;;5027277;28;20117;-56
2024/01/14 04:09:45;;;;;;;11.75;11.15;;;;;;;;;;5037641;28;20032;-54
2024/01/14 04:12:10;;;;;;;11.90;11.30;;;;;;;;;;5033811;28;20021;-55
2024/01/14 04:14:35;;;;;;;12.23;11.57;;;;;;;;;;5033556;28;20024;-52
2024/01/14 04:17:01;;;;;;;11.50;10.90;;;;;;;;;;5040807;28;20541;-54
2024/01/14 04:19:26;;;;;;;11.60;11.00;;;;;;;;;;5037735;28;20021;-55
2024/01/14 04:21:52;;;;;;;11.38;10.77;;;;;;;;;;5032688;28;20158;-57
2024/01/14 04:24:17;;;;;;;11.02;10.52;;;;;;;;;;5028477;28;20037;-52
2024/01/14 04:26:42;;;;;;;12.10;11.50;;;;;;;;;;5038048;28;20714;-55
2024/01/14 04:29:08;;;;;;;11.85;11.20;;;;;;;;;;5039020;28;20469;-55
2024/01/14 04:31:33;;;;;;;10.80;10.30;;;;;;;;;;5033951;28;20556;-55
2024/01/14 04:33:59;;;;;;;12.20;11.50;;;;;;;;;;5032327;28;20019;-54
2024/01/14 04:36:25;;;;;;;11.65;11.05;;;;;;;;;;5038943;28;20037;-53
2024/01/14 04:38:50;;;;;;;12.23;11.60;;;;;;;;;;5033729;28;20013;-55
2024/01/14 04:41:15;;;;;;;12.45;11.80;;;;;;;;;;5033880;28;20053;-55
2024/01/14 04:43:40;;;;;;;12.32;11.73;;;;;;;;;;5033363;28;20068;-53
2024/01/14 04:46:10;;;;;;;11.95;11.35;;;;;;;;;;5041922;28;20032;-56
2024/01/14 04:48:35;;;;;;;11.98;11.38;;;;;;;;;;5021623;28;20572;-54
2024/01/14 04:51:01;;;;;;;12.88;12.18;;;;;;;;;;5032909;28;20104;-56
2024/01/14 04:53:27;;;;;;;12.20;11.60;;;;;;;;;;5032578;28;20018;-55
2024/01/14 04:55:53;;;;;;;11.95;11.35;;;;;;;;;;5034954;28;20032;-56
2024/01/14 04:58:18;;;;;;;12.20;11.60;;;;;;;;;;5032182;28;20033;-54
2024/01/14 05:00:43;;;;;;;12.63;11.93;;;;;;;;;;5033410;28;20036;-54
2024/01/14 05:03:09;;;;;;;12.32;11.63;;;;;;;;;;5030441;28;20021;-57
2024/01/14 05:05:34;;;;;;;12.57;11.88;;;;;;;;;;5028043;28;20389;-56
2024/01/14 05:07:59;;;;;;;13.32;12.57;;;;;;;;;;5039861;28;20021;-57
2024/01/14 05:10:25;;;;;;;12.40;11.80;;;;;;;;;;5035113;28;20388;-55
2024/01/14 05:12:50;;;;;;;12.48;11.88;;;;;;;;;;5035712;28;20380;-55
2024/01/14 05:15:15;;;;;;;12.70;12.10;;;;;;;;;;5040520;28;20017;-53
2024/01/14 05:17:41;;;;;;;13.02;12.32;;;;;;;;;;5029307;28;20042;-52
2024/01/14 05:20:08;;;;;;;13.35;12.65;;;;;;;;;;5031922;28;20036;-57
2024/01/14 05:22:33;;;;;;;13.13;12.50;;;;;;;;;;5032675;28;20053;-55
2024/01/14 05:24:59;;;;;;;12.70;12.00;;;;;;;;;;5037068;28;20052;-58
2024/01/14 05:27:24;;;;;;;12.10;11.50;;;;;;;;;;5024662;28;20102;-57
2024/01/14 05:29:49;;;;;;;13.30;12.60;;;;;;;;;;5030492;28;20014;-58
2024/01/14 05:32:15;;;;;;;13.60;12.85;;;;;;;;;;5031478;28;20022;-56
2024/01/14 05:34:44;;;;;;;12.23;11.63;;;;;;;;;;5039963;28;20404;-56
2024/01/14 05:37:10;;;;;;;12.52;11.93;;;;;;;;;;5031480;28;20028;-58
2024/01/14 05:39:35;;;;;;;13.23;12.52;;;;;;;;;;5043951;28;20018;-56
2024/01/14 05:42:01;;;;;;;13.20;12.52;;;;;;;;;;5032154;28;20441;-55
2024/01/14 05:44:27;;;;;;;14.18;13.40;;;;;;;;;;5028128;28;20014;-56
2024/01/14 05:46:52;;;;;;;13.05;12.45;;;;;;;;;;5032126;28;20385;-54
2024/01/14 05:49:18;;;;;;;13.10;12.40;;;;;;;;;;5035769;28;20145;-54
2024/01/14 05:51:43;;;;;;;12.95;12.35;;;;;;;;;;5040878;28;20492;-54
2024/01/14 05:54:09;;;;;;;12.80;12.15;;;;;;;;;;5036403;28;20028;-57
2024/01/14 05:56:34;;;;;;;12.98;12.27;;;;;;;;;;5042848;28;20067;-58
2024/01/14 05:59:00;;;;;;;13.02;12.43;;;;;;;;;;5036029;28;20207;-57
2024/01/14 06:01:27;;;;;;;14.18;13.48;;;;;;;;;;5033714;28;20025;-54
2024/01/14 06:03:52;;;;;;;13.30;12.60;;;;;;;;;;5033474;28;20507;-55
2024/01/14 06:06:18;;;;;;;12.95;12.30;;;;;;;;;;5035215;28;20147;-56
2024/01/14 06:08:44;;;;;;;12.18;11.57;;;;;;;;;;5034969;28;20032;-55
2024/01/14 06:11:09;;;;;;;12.15;11.55;;;;;;;;;;5031956;28;20025;-55
2024/01/14 06:13:35;;;;;;;12.02;11.43;;;;;;;;;;5032949;28;20022;-57
2024/01/14 06:16:01;;;;;;;11.63;11.02;;;;;;;;;;5031636;28;20021;-56
2024/01/14 06:18:28;;;;;;;11.82;11.23;;;;;;;;;;5037904;28;20042;-56
2024/01/14 06:20:55;;;;;;;11.90;11.30;;;;;;;;;;5030997;28;20509;-56
2024/01/14 06:23:21;;;;;;;11.50;10.90;;;;;;;;;;5032433;28;20014;-57
2024/01/14 06:25:46;;;;;;;11.02;10.52;;;;;;;;;;5029963;28;20382;-55
2024/01/14 06:28:11;;;;;;;10.65;10.13;;;;;;;;;;5032666;28;20087;-56
2024/01/14 06:30:37;;;;;;;11.85;11.18;;;;;;;;;;5035045;28;20018;-54
2024/01/14 06:33:02;;;;;;;12.02;11.32;;;;;;;;;;5028869;28;20024;-56
2024/01/14 06:35:27;;;;;;;10.98;10.48;;;;;;;;;;5031509;28;20408;-55
2024/01/14 06:37:53;;;;;;;10.50;10.00;;;;;;;;;;5033531;28;20500;-58
2024/01/14 06:40:18;;;;;;;10.25;9.75;;;;;;;;;;5031957;28;20029;-59
2024/01/14 06:42:43;;;;;;;9.90;9.40;;;;;;;;;;5033008;28;20036;-56
2024/01/14 06:45:11;;;;;;;11.23;10.63;;;;;;;;;;5031763;28;20362;-57
2024/01/14 06:47:37;;;;;;;11.40;10.80;;;;;;;;;;5028532;28;20064;-56
2024/01/14 06:50:03;;;;;;;11.30;10.70;;;;;;;;;;5044508;28;20020;-54
2024/01/14 06:52:28;;;;;;;11.23;10.63;;;;;;;;;;5051234;28;20036;-58
2024/01/14 06:54:53;;;;;;;10.45;9.95;;;;;;;;;;5045601;28;20028;-55
2024/01/14 06:57:19;;;;;;;10.73;10.15;;;;;;;;;;5039111;28;20077;-57
2024/01/14 06:59:44;;;;;;;10.68;10.10;;;;;;;;;;5039692;28;20045;-55
2024/01/14 07:02:11;;;;;;;10.82;10.23;;;;;;;;;;5039660;28;20496;-53
2024/01/14 07:04:36;;;;;;;10.00;9.50;;;;;;;;;;5049792;28;20429;-53
2024/01/14 07:07:01;;;;;;;10.02;9.52;;;;;;;;;;5042152;28;20033;-53
2024/01/14 07:09:27;;;;;;;11.07;10.48;;;;;;;;;;5039821;28;20105;-55
2024/01/14 07:11:52;;;;;;;11.60;11.00;;;;;;;;;;5035715;28;20472;-54
2024/01/14 07:14:17;;;;;;;11.05;10.45;;;;;;;;;;5025750;28;20066;-56
2024/01/14 07:16:42;;;;;;;9.30;8.90;;;;;;;;;;5034628;28;20478;-57
2024/01/14 07:19:08;;;;;;;10.20;9.70;;;;;;;;;;5035098;28;20088;-56
2024/01/14 07:21:33;;;;;;;10.70;10.18;;;;;;;;;;5034898;28;20531;-59
2024/01/14 07:23:59;;;;;;;11.15;10.55;;;;;;;;;;5034339;28;20461;-57
2024/01/14 07:26:25;;;;;;;11.20;10.60;;;;;;;;;;5039152;28;20029;-55
2024/01/14 07:28:52;;;;;;;9.40;9.00;;;;;;;;;;5038409;28;20507;-52
2024/01/14 07:31:20;;;;;;;10.40;9.90;;;;;;;;;;5041000;28;20026;-57
2024/01/14 07:33:47;;;;;;;10.00;9.50;;;;;;;;;;5032726;28;20053;-58
2024/01/14 07:36:12;;;;;;;10.70;10.20;;;;;;;;;;5035936;28;20036;-54
2024/01/14 07:38:38;;;;;;;10.45;9.95;;;;;;;;;;5034747;28;20026;-57
2024/01/14 07:41:05;;;;;;;10.13;9.63;;;;;;;;;;5034442;28;20040;-55
2024/01/14 07:43:30;;;;;;;10.48;9.98;;;;;;;;;;5034518;28;20025;-57
2024/01/14 07:45:56;;;;;;;11.18;10.57;;;;;;;;;;5034519;28;20058;-59
2024/01/14 07:48:21;;;;;;;10.52;10.00;;;;;;;;;;5034384;28;20033;-57
2024/01/14 07:50:46;;;;;;;9.50;9.10;;;;;;;;;;5045597;28;20034;-55
2024/01/14 07:53:13;;;;;;;9.63;9.23;;;;;;;;;;5034435;28;20029;-57
2024/01/14 07:55:38;;;;;;;10.30;9.80;;;;;;;;;;5034398;28;20437;-58
2024/01/14 07:58:04;;;;;;;10.07;9.63;;;;;;;;;;5034556;28;20113;-56
2024/01/14 08:00:29;;;;;;;11.05;10.55;;;;;;;;;;5031368;28;20060;-58
2024/01/14 08:02:54;;;;;;;11.73;11.13;;;;;;;;;;5033259;28;20052;-56
2024/01/14 08:05:19;;;;;;;10.80;10.30;;;;;;;;;;5033831;28;20435;-57
2024/01/14 08:07:45;;;;;;;11.02;10.52;;;;;;;;;;5034008;28;20051;-59
2024/01/14 08:10:11;;;;;;;11.27;10.77;;;;;;;;;;5037297;28;20021;-58
2024/01/14 08:12:36;;;;;;;10.95;10.43;;;;;;;;;;5032587;28;20022;-55
2024/01/14 08:15:02;;;;;;;10.80;10.30;;;;;;;;;;5033833;28;20036;-59
2024/01/14 08:17:28;;;;;;;10.18;9.68;;;;;;;;;;5033488;28;20110;-55
2024/01/14 08:19:53;;;;;;;10.10;9.60;;;;;;;;;;5033864;28;20473;-55
2024/01/14 08:22:18;;;;;;;11.00;10.50;;;;;;;;;;5033020;28;20055;-56
2024/01/14 08:24:44;;;;;;;10.90;10.40;;;;;;;;;;5033962;28;20029;-56
2024/01/14 08:27:09;;;;;;;10.68;10.18;;;;;;;;;;5033932;28;20074;-56
2024/01/14 08:29:35;;;;;;;11.55;10.95;;;;;;;;;;5034000;28;20377;-54
2024/01/14 08:32:00;;;;;;;11.27;10.70;;;;;;;;;;5031613;28;20018;-55
2024/01/14 08:34:26;;;;;;;10.73;10.23;;;;;;;;;;5033628;28;20028;-55
2024/01/14 08:36:51;;;;;;;11.07;10.57;;;;;;;;;;5033663;28;20021;-55
2024/01/14 08:39:16;;;;;;;11.10;10.55;;;;;;;;;;5032627;28;20364;-55
2024/01/14 08:41:42;;;;;;;10.73;10.23;;;;;;;;;;5033236;28;20031;-56
2024/01/14 08:44:10;;;;;;;11.02;10.50;;;;;;;;;;5033324;28;20103;-53
2024/01/14 08:46:39;;;;;;;10.02;9.55;;;;;;;;;;5032557;28;20036;-58
2024/01/14 08:49:04;;;;;;;10.50;10.00;;;;;;;;;;5034691;28;20144;-57
2024/01/14 08:51:29;;;;;;;11.02;10.43;;;;;;;;;;5032896;28;20037;-53
2024/01/14 08:54:00;;;;;;;10.00;9.50;;;;;;;;;;5032926;28;20033;-55
2024/01/14 08:56:26;;;;;;;10.30;9.80;;;;;;;;;;5039191;28;20049;-58
2024/01/14 08:58:51;;;;;;;10.73;10.23;;;;;;;;;;5036550;28;20087;-56
2024/01/14 09:01:17;;;;;;;10.48;9.98;;;;;;;;;;5050936;28;20107;-56
2024/01/14 09:03:43;;;;;;;10.70;10.20;;;;;;;;;;5032953;28;20061;-57
2024/01/14 09:06:09;;;;;;;11.15;10.63;;;;;;;;;;5032464;28;20041;-55
2024/01/14 09:08:35;;;;;;;10.82;10.32;;;;;;;;;;5038772;28;20033;-56
2024/01/14 09:11:00;;;;;;;10.90;10.40;;;;;;;;;;5044383;28;20115;-54
2024/01/14 09:13:26;;;;;;;10.30;9.80;;;;;;;;;;5028810;28;20540;-58
2024/01/14 09:15:51;;;;;;;11.13;10.57;;;;;;;;;;5026546;28;20037;-54
2024/01/14 09:18:16;;;;;;;11.10;10.52;;;;;;;;;;5033527;28;20044;-57
2024/01/14 09:20:42;;;;;;;10.50;10.00;;;;;;;;;;5035206;28;20024;-56
2024/01/14 09:23:08;;;;;;;10.93;10.43;;;;;;;;;;5029106;28;20024;-55
2024/01/14 09:25:34;;;;;;;11.30;10.70;;;;;;;;;;5035417;28;20171;-54
2024/01/14 09:27:59;;;;;;;11.25;10.65;;;;;;;;;;5032683;28;20028;-55
2024/01/14 09:30:25;;;;;;;11.50;10.90;;;;;;;;;;5031215;28;20104;-57
2024/01/14 09:32:50;;;;;;;11.35;10.75;;;;;;;;;;5037032;28;20454;-56
2024/01/14 09:35:15;;;;;;;11.10;10.55;;;;;;;;;;5031829;28;20060;-58
2024/01/14 09:37:41;;;;;;;11.52;10.93;;;;;;;;;;5045277;28;20389;-55
2024/01/14 09:40:06;;;;;;;11.13;10.57;;;;;;;;;;5040246;28;20029;-57
2024/01/14 09:42:35;;;;;;;11.75;11.15;;;;;;;;;;5042045;28;20026;-53
2024/01/14 09:45:01;;;;;;;11.73;11.13;;;;;;;;;;5042399;28;20079;-54
2024/01/14 09:47:27;;;;;;;11.40;10.90;;;;;;;;;;5030785;28;20033;-56
2024/01/14 09:49:58;;;;;;;11.18;10.68;;;;;;;;;;5040861;28;20021;-57
2024/01/14 09:52:24;;;;;;;11.65;11.05;;;;;;;;;;5032548;28;20045;-56
2024/01/14 09:54:50;;;;;;;11.65;11.05;;;;;;;;;;5031610;28;20107;-56
2024/01/14 09:57:17;;;;;;;10.82;10.32;;;;;;;;;;5035502;28;20029;-55
2024/01/14 09:59:45;;;;;;;11.23;10.63;;;;;;;;;;5026563;28;20681;-57
2024/01/14 10:02:11;;;;;;;11.93;11.25;;;;;;;;;;5041650;28;20079;-53
2024/01/14 10:04:40;;;;;;;11.52;10.90;;;;;;;;;;5036912;28;20021;-57
2024/01/14 10:07:07;;;;;;;11.00;10.40;;;;;;;;;;5031152;28;20013;-55
2024/01/14 10:09:32;;;;;;;10.95;10.35;;;;;;;;;;5037812;28;20511;-55
2024/01/14 10:11:57;;;;;;;10.40;9.90;;;;;;;;;;5034270;28;20034;-58
2024/01/14 10:14:29;;;;;;;9.68;9.27;;;;;;;;;;5031528;28;20026;-56
2024/01/14 10:16:55;;;;;;;10.45;9.95;;;;;;;;;;5034820;28;20084;-56
2024/01/14 10:19:21;;;;;;;10.80;10.30;;;;;;;;;;5031569;28;20083;-53
2024/01/14 10:21:46;;;;;;;10.63;10.13;;;;;;;;;;5029850;28;20440;-55
2024/01/14 10:24:12;;;;;;;10.30;9.80;;;;;;;;;;5030593;28;20025;-58
2024/01/14 10:26:37;;;;;;;10.80;10.27;;;;;;;;;;5037150;28;20116;-56
2024/01/14 10:29:03;;;;;;;11.95;11.25;;;;;;;;;;5035167;28;20102;-55
2024/01/14 10:31:28;;;;;;;10.32;9.82;;;;;;;;;;5032235;28;20159;-54
2024/01/14 10:33:54;;;;;;;10.20;9.70;;;;;;;;;;5030851;28;20028;-58
2024/01/14 10:36:20;;;;;;;10.75;10.25;;;;;;;;;;5030963;28;20033;-56
2024/01/14 10:38:45;;;;;;;10.60;10.10;;;;;;;;;;5033564;28;20033;-58
2024/01/14 10:41:10;;;;;;;10.80;10.30;;;;;;;;;;5037513;28;20104;-57
2024/01/14 10:43:36;;;;;;;10.60;10.10;;;;;;;;;;5030976;28;20029;-57
2024/01/14 10:46:02;;;;;;;10.88;10.38;;;;;;;;;;5031321;28;20030;-56
2024/01/14 10:48:28;;;;;;;10.45;9.95;;;;;;;;;;5034131;28;20025;-56
2024/01/14 10:51:00;;;;;;;10.65;10.15;;;;;;;;;;5036254;28;20021;-56
2024/01/14 10:53:31;;;;;;;11.02;10.43;;;;;;;;;;5030692;28;20024;-57
2024/01/14 10:56:01;;;;;;;10.98;10.40;;;;;;;;;;5030471;28;20014;-56
2024/01/14 10:58:29;;;;;;;11.02;10.48;;;;;;;;;;5031227;28;20068;-58
2024/01/14 11:01:04;;;;;;;10.50;10.00;;;;;;;;;;5035587;28;20017;-58
2024/01/14 11:03:30;;;;;;;10.77;10.27;;;;;;;;;;5030793;28;20052;-58
2024/01/14 11:05:55;;;;;;;10.70;10.20;;;;;;;;;;5026146;28;20049;-56
2024/01/14 11:08:23;;;;;;;10.50;10.00;;;;;;;;;;5035259;28;20029;-58
2024/01/14 11:10:51;;;;;;;9.85;9.45;;;;;;;;;;5031944;28;20025;-59
2024/01/14 11:13:16;;;;;;;11.63;11.02;;;;;;;;;;5033004;28;20017;-58
2024/01/14 11:15:51;;;;;;;11.30;10.70;;;;;;;;;;5031282;28;20014;-55
2024/01/14 11:18:21;;;;;;;11.65;11.05;;;;;;;;;;5034695;28;20073;-54
2024/01/14 11:20:51;;;;;;;10.80;10.30;;;;;;;;;;5034324;28;20029;-59
2024/01/14 11:23:20;;;;;;;11.30;10.70;;;;;;;;;;5026793;28;20433;-57
2024/01/14 11:25:48;;;;;;;11.98;11.32;;;;;;;;;;5037490;28;20025;-57
2024/01/14 11:28:13;;;;;;;11.20;10.60;;;;;;;;;;5034554;28;20021;-56
2024/01/14 11:30:48;;;;;;;11.07;10.50;;;;;;;;;;5033064;28;20029;-57
2024/01/14 11:33:32;;;;;;;10.95;10.40;;;;;;;;;;5021973;28;20049;-55
2024/01/14 11:35:58;;;;;;;10.90;10.40;;;;;;;;;;5033573;28;20092;-59
2024/01/14 11:38:36;;;;;;;11.13;10.52;;;;;;;;;;5026231;28;20032;-54
2024/01/14 11:41:20;;;;;;;10.82;10.32;;;;;;;;;;5033641;28;20026;-56
2024/01/14 11:43:48;;;;;;;10.57;10.07;;;;;;;;;;5034578;28;20025;-55
2024/01/14 11:46:32;;;;;;;11.70;11.10;;;;;;;;;;5036990;28;20043;-54
2024/01/14 11:48:57;;;;;;;11.18;10.57;;;;;;;;;;5037421;28;20029;-59
2024/01/14 11:51:23;;;;;;;11.18;10.57;;;;;;;;;;5039221;28;20072;-55
2024/01/14 11:53:48;;;;;;;11.30;10.70;;;;;;;;;;5040841;28;20014;-57
2024/01/14 11:56:27;;;;;;;11.02;10.50;;;;;;;;;;5033956;28;20057;-57
2024/01/14 11:58:52;;;;;;;11.25;10.65;;;;;;;;;;5032077;28;20028;-57
2024/01/14 12:01:19;;;;;;;10.77;10.27;;;;;;;;;;5034534;28;20396;-55
2024/01/14 12:03:46;;;;;;;10.80;10.30;;;;;;;;;;5036960;28;20121;-55
2024/01/14 12:06:12;;;;;;;11.57;10.98;;;;;;;;;;5033494;28;20132;-55
2024/01/14 12:08:37;;;;;;;12.23;11.52;;;;;;;;;;5034144;28;20050;-58
2024/01/14 12:11:03;;;;;;;12.23;11.52;;;;;;;;;;5033484;28;20031;-57
2024/01/14 12:13:30;;;;;;;11.93;11.32;;;;;;;;;;5025066;28;20029;-56
2024/01/14 12:15:55;;;;;;;11.32;10.73;;;;;;;;;;5034633;28;20083;-55
2024/01/14 12:18:21;;;;;;;11.23;10.63;;;;;;;;;;5034887;28;20057;-56
2024/01/14 12:20:48;;;;;;;12.43;11.73;;;;;;;;;;5032216;28;20057;-55
2024/01/14 12:23:14;;;;;;;11.35;10.75;;;;;;;;;;5034001;28;20028;-54
2024/01/14 12:25:39;;;;;;;11.48;10.88;;;;;;;;;;5033898;28;20021;-53
2024/01/14 12:28:05;;;;;;;11.15;10.55;;;;;;;;;;5036545;28;20075;-58
2024/01/14 12:30:36;;;;;;;11.45;10.85;;;;;;;;;;5042079;28;20013;-57
2024/01/14 12:33:08;;;;;;;11.55;10.95;;;;;;;;;;5039712;28;20021;-58
2024/01/14 12:35:35;;;;;;;12.18;11.52;;;;;;;;;;5033624;28;20017;-58
2024/01/14 12:38:00;;;;;;;11.30;10.80;;;;;;;;;;5032330;28;20033;-57
2024/01/14 12:40:26;;;;;;;11.40;10.80;;;;;;;;;;5035239;28;20025;-56
2024/01/14 12:42:51;;;;;;;12.10;11.50;;;;;;;;;;5036171;28;20036;-57
2024/01/14 12:45:17;;;;;;;12.02;11.43;;;;;;;;;;5033007;28;20083;-56
2024/01/14 12:47:42;;;;;;;11.30;10.70;;;;;;;;;;5037645;28;20495;-56
2024/01/14 12:50:08;;;;;;;11.50;10.90;;;;;;;;;;5032939;28;20037;-58
2024/01/14 12:52:35;;;;;;;11.90;11.30;;;;;;;;;;5037553;28;20075;-57
2024/01/14 12:55:01;;;;;;;11.52;10.93;;;;;;;;;;5040783;28;20385;-53
2024/01/14 12:57:26;;;;;;;11.85;11.25;;;;;;;;;;5037932;28;20029;-57
2024/01/14 12:59:52;;;;;;;12.43;11.73;;;;;;;;;;5040664;28;20076;-56
2024/01/14 13:02:17;;;;;;;11.38;10.77;;;;;;;;;;5046196;28;20115;-57
2024/01/14 13:04:43;;;;;;;11.00;10.40;;;;;;;;;;5039945;28;20025;-56
2024/01/14 13:07:08;;;;;;;10.77;10.27;;;;;;;;;;5045437;28;20021;-57
2024/01/14 13:09:33;;;;;;;11.02;10.50;;;;;;;;;;5032911;28;20097;-57
2024/01/14 13:11:59;;;;;;;12.98;12.18;;;;;;;;;;5029694;28;20465;-57
2024/01/14 13:14:28;;;;;;;11.80;11.20;;;;;;;;;;5037166;28;20422;-55
2024/01/14 13:16:54;;;;;;;10.68;10.18;;;;;;;;;;5028863;28;20046;-57
2024/01/14 13:19:19;;;;;;;11.00;10.50;;;;;;;;;;5036008;28;20369;-57
2024/01/14 13:21:44;;;;;;;10.75;10.25;;;;;;;;;;5023294;28;20506;-59
2024/01/14 13:24:09;;;;;;;11.48;10.88;;;;;;;;;;5032176;28;20477;-55
2024/01/14 13:26:36;;;;;;;11.73;11.13;;;;;;;;;;5032145;28;20021;-55
2024/01/14 13:29:01;;;;;;;11.57;10.98;;;;;;;;;;5031978;28;20022;-57
2024/01/14 13:31:27;;;;;;;10.60;10.10;;;;;;;;;;5030794;28;20032;-61
2024/01/14 13:33:52;;;;;;;11.02;10.52;;;;;;;;;;5028502;28;20047;-55
2024/01/14 13:36:18;;;;;;;11.43;10.82;;;;;;;;;;5032723;28;20112;-56
2024/01/14 13:38:43;;;;;;;10.85;10.32;;;;;;;;;;5032519;28;20025;-56
2024/01/14 13:41:08;;;;;;;10.93;10.40;;;;;;;;;;5034458;28;20124;-56
2024/01/14 13:43:34;;;;;;;10.70;10.20;;;;;;;;;;5032663;28;20067;-57
2024/01/14 13:45:59;;;;;;;10.20;9.70;;;;;;;;;;5031400;28;20075;-56
2024/01/14 13:48:24;;;;;;;10.88;10.27;;;;;;;;;;5029457;28;20024;-54
2024/01/14 13:50:50;;;;;;;11.57;10.98;;;;;;;;;;5034174;28;20538;-57
2024/01/14 13:53:17;;;;;;;11.82;11.23;;;;;;;;;;5044898;28;20024;-59
2024/01/14 13:55:43;;;;;;;12.40;11.70;;;;;;;;;;5032168;28;20625;-58
2024/01/14 13:58:08;;;;;;;11.15;10.60;;;;;;;;;;5036860;28;20092;-55
2024/01/14 14:00:34;;;;;;;11.55;10.95;;;;;;;;;;5027762;28;20022;-57
2024/01/14 14:02:59;;;;;;;11.48;10.88;;;;;;;;;;5031771;28;20029;-57
2024/01/14 14:05:25;;;;;;;11.68;11.07;;;;;;;;;;5036290;28;20539;-56
2024/01/14 14:07:50;;;;;;;11.45;10.85;;;;;;;;;;5032467;28;20447;-57
2024/01/14 14:10:16;;;;;;;11.63;11.02;;;;;;;;;;5038253;28;20021;-57
2024/01/14 14:12:41;;;;;;;10.98;10.48;;;;;;;;;;5031575;28;20048;-56
2024/01/14 14:15:07;;;;;;;12.10;11.50;;;;;;;;;;5031024;28;20052;-55